Time;durP1;ratioP1;P1;durP2;ratioP2;P2;SDS_P1;SDS_P2;PMS_P1;PMS_P2;Temp;Humidity;BMP_temperature;BMP_pressure;BME280_temperature;BME280_humidity;BME280_pressure;Samples;Min_cycle;Max_cycle;Signal;HPM_P1;HPM_P2
2023/04/17 00:00:09;;;;;;;5.43;2.80;;;15.20;94.80;;;;;;5012900;28;20197;-76
2023/04/17 00:02:39;;;;;;;9.20;3.00;;;15.10;94.90;;;;;;5011716;28;20232;-76
2023/04/17 00:05:08;;;;;;;7.93;3.30;;;15.10;94.90;;;;;;5006207;28;20422;-78
2023/04/17 00:07:38;;;;;;;4.03;2.70;;;15.20;94.90;;;;;;5009016;28;20223;-76
2023/04/17 00:10:08;;;;;;;13.90;4.33;;;15.20;94.80;;;;;;5016438;28;20207;-76
2023/04/17 00:12:37;;;;;;;8.03;2.67;;;15.10;95.00;;;;;;5008120;28;20196;-76
2023/04/17 00:15:06;;;;;;;18.70;3.27;;;15.00;95.10;;;;;;5009266;28;20215;-75
2023/04/17 00:17:35;;;;;;;7.43;2.67;;;15.00;95.10;;;;;;5012425;28;20200;-76
2023/04/17 00:20:06;;;;;;;4.07;2.33;;;15.00;95.10;;;;;;5008061;28;20200;-77
2023/04/17 00:22:35;;;;;;;4.80;2.83;;;15.10;95.00;;;;;;5011570;28;20263;-75
2023/04/17 00:25:06;;;;;;;3.47;2.47;;;15.00;95.00;;;;;;5008699;28;20262;-77
2023/04/17 00:27:34;;;;;;;4.47;2.23;;;15.10;95.00;;;;;;5007841;28;21720;-76
2023/04/17 00:30:03;;;;;;;4.50;2.17;;;15.10;94.80;;;;;;5003796;28;20209;-76
2023/04/17 00:32:31;;;;;;;4.80;2.77;;;15.10;94.90;;;;;;5002661;28;20270;-77
2023/04/17 00:35:00;;;;;;;4.93;2.17;;;15.10;94.80;;;;;;5004051;28;20279;-77
2023/04/17 00:37:28;;;;;;;13.83;2.13;;;15.10;94.90;;;;;;5002869;28;20223;-76
2023/04/17 00:39:57;;;;;;;2.87;1.83;;;15.10;94.80;;;;;;5000267;28;20208;-77
2023/04/17 00:42:26;;;;;;;6.23;1.87;;;15.10;94.70;;;;;;5003292;28;20235;-75
2023/04/17 00:44:55;;;;;;;5.13;2.90;;;15.10;94.70;;;;;;5005092;28;20196;-76
2023/04/17 00:47:25;;;;;;;8.20;2.47;;;15.00;94.80;;;;;;5019445;28;20199;-76
2023/04/17 00:49:53;;;;;;;9.53;3.57;;;15.00;94.90;;;;;;5011399;28;20657;-78
2023/04/17 00:52:27;;;;;;;6.47;2.47;;;15.00;94.90;;;;;;5011262;28;20208;-77
2023/04/17 00:54:57;;;;;;;6.20;2.63;;;15.00;94.90;;;;;;5011443;28;20193;-77
2023/04/17 00:57:27;;;;;;;3.90;1.93;;;15.00;94.80;;;;;;5007612;28;20248;-76
2023/04/17 00:59:57;;;;;;;5.17;2.17;;;15.00;94.90;;;;;;5004737;28;20200;-75
2023/04/17 01:02:26;;;;;;;6.33;2.63;;;15.00;94.80;;;;;;5012473;28;20231;-76
2023/04/17 01:04:54;;;;;;;4.47;2.17;;;15.00;94.90;;;;;;5015610;28;20200;-76
2023/04/17 01:07:23;;;;;;;6.90;3.63;;;15.00;94.90;;;;;;5005722;28;20567;-77
2023/04/17 01:09:51;;;;;;;4.27;2.90;;;15.00;94.90;;;;;;5013654;28;20585;-76
2023/04/17 01:12:20;;;;;;;4.63;2.60;;;15.00;94.90;;;;;;5007829;28;20240;-77
2023/04/17 01:14:51;;;;;;;4.27;2.30;;;15.00;95.00;;;;;;5003652;28;20197;-75
2023/04/17 01:17:20;;;;;;;5.80;3.27;;;15.00;94.90;;;;;;5008406;28;20251;-75
2023/04/17 01:19:49;;;;;;;5.17;2.40;;;15.00;94.90;;;;;;5008830;28;20201;-77
2023/04/17 01:22:19;;;;;;;3.97;2.10;;;15.00;94.90;;;;;;5009284;28;20231;-76
2023/04/17 01:24:49;;;;;;;9.53;3.77;;;15.00;94.90;;;;;;5012144;28;20220;-77
2023/04/17 01:27:17;;;;;;;6.23;2.10;;;15.00;94.90;;;;;;5013999;28;20287;-77
2023/04/17 01:29:46;;;;;;;11.77;3.30;;;15.00;94.90;;;;;;5009822;28;20224;-76
2023/04/17 01:32:15;;;;;;;3.37;2.13;;;15.00;94.90;;;;;;5008197;28;20211;-77
2023/04/17 01:34:44;;;;;;;3.50;2.57;;;15.00;94.90;;;;;;5018883;28;20279;-78
2023/04/17 01:37:12;;;;;;;4.07;2.00;;;15.00;94.90;;;;;;5008294;28;20196;-76
2023/04/17 01:39:40;;;;;;;10.23;2.80;;;15.00;94.90;;;;;;5017898;28;20284;-75
2023/04/17 01:42:10;;;;;;;9.43;3.17;;;15.00;94.80;;;;;;5007021;28;20598;-76
2023/04/17 01:44:38;;;;;;;6.97;2.67;;;15.00;94.80;;;;;;5009844;28;20263;-76
2023/04/17 01:47:07;;;;;;;3.43;2.13;;;15.10;94.80;;;;;;5010524;28;20716;-76
2023/04/17 01:49:35;;;;;;;5.87;2.70;;;15.10;94.70;;;;;;5012747;28;20205;-76
2023/04/17 01:52:03;;;;;;;7.10;2.97;;;15.10;94.70;;;;;;5008191;28;20255;-77
2023/04/17 01:54:32;;;;;;;10.90;3.40;;;15.10;94.70;;;;;;5011755;28;20204;-75
2023/04/17 01:57:01;;;;;;;8.77;2.60;;;15.10;94.70;;;;;;5014292;28;20212;-76
2023/04/17 01:59:30;;;;;;;8.13;2.80;;;15.00;94.70;;;;;;5010235;28;20208;-76
2023/04/17 02:01:59;;;;;;;7.13;3.27;;;15.10;94.70;;;;;;5011950;28;20709;-77
2023/04/17 02:04:28;;;;;;;2.60;1.70;;;15.10;94.70;;;;;;5007704;28;20853;-76
2023/04/17 02:06:57;;;;;;;3.70;2.50;;;15.00;94.70;;;;;;5007567;28;20270;-75
2023/04/17 02:09:25;;;;;;;7.90;2.37;;;15.00;94.70;;;;;;5012488;28;20656;-76
2023/04/17 02:11:55;;;;;;;4.13;2.70;;;15.00;94.70;;;;;;5009746;28;20568;-76
2023/04/17 02:14:23;;;;;;;6.53;3.17;;;15.10;94.70;;;;;;5005111;28;20263;-76
2023/04/17 02:16:53;;;;;;;4.40;2.47;;;15.00;94.70;;;;;;5013121;28;20212;-77
2023/04/17 02:19:21;;;;;;;5.67;3.10;;;15.10;94.70;;;;;;5010835;28;20531;-77
2023/04/17 02:21:50;;;;;;;5.00;2.97;;;14.90;94.70;;;;;;5010526;28;20236;-76
2023/04/17 02:24:18;;;;;;;3.53;2.27;;;15.00;94.70;;;;;;5012786;28;20255;-77
2023/04/17 02:26:46;;;;;;;9.40;2.57;;;15.00;94.80;;;;;;5012655;28;20204;-75
2023/04/17 02:29:15;;;;;;;4.33;2.07;;;14.90;94.80;;;;;;5006514;28;20254;-75
2023/04/17 02:31:43;;;;;;;9.10;2.53;;;14.90;94.70;;;;;;5002853;28;20657;-77
2023/04/17 02:34:13;;;;;;;5.03;2.20;;;15.00;94.70;;;;;;5001881;28;20201;-75
2023/04/17 02:36:41;;;;;;;4.17;1.87;;;14.90;94.80;;;;;;5005559;28;20233;-76
2023/04/17 02:39:10;;;;;;;3.73;2.27;;;14.90;94.70;;;;;;5006289;28;20216;-75
2023/04/17 02:41:39;;;;;;;6.17;2.90;;;14.90;94.80;;;;;;5007085;28;20196;-77
2023/04/17 02:44:07;;;;;;;6.30;2.37;;;14.90;94.90;;;;;;5008756;28;20216;-77
2023/04/17 02:46:35;;;;;;;2.57;1.50;;;14.90;95.10;;;;;;5018197;28;20231;-75
2023/04/17 02:49:04;;;;;;;8.00;1.77;;;14.90;94.80;;;;;;5013746;28;20200;-76
2023/04/17 02:51:33;;;;;;;3.20;2.07;;;14.90;94.90;;;;;;5014079;28;20208;-76
2023/04/17 02:54:02;;;;;;;3.13;2.43;;;14.80;94.90;;;;;;5008523;28;20197;-76
2023/04/17 02:56:30;;;;;;;4.00;2.53;;;14.80;95.00;;;;;;5012240;28;20698;-77
2023/04/17 02:58:58;;;;;;;3.83;1.73;;;14.80;95.00;;;;;;5008162;28;20192;-79
2023/04/17 03:01:27;;;;;;;4.30;2.60;;;14.80;94.90;;;;;;5008606;28;20263;-76
2023/04/17 03:03:55;;;;;;;2.73;1.50;;;14.90;94.90;;;;;;5024464;28;20228;-77
2023/04/17 03:06:25;;;;;;;3.43;1.63;;;14.80;94.90;;;;;;5025677;28;20257;-76
2023/04/17 03:08:55;;;;;;;4.17;2.67;;;14.80;95.00;;;;;;5024162;28;20295;-78
2023/04/17 03:11:24;;;;;;;5.70;2.30;;;14.70;95.00;;;;;;5024139;28;20786;-76
2023/04/17 03:13:52;;;;;;;3.67;2.40;;;14.70;95.10;;;;;;5022453;28;20554;-75
2023/04/17 03:16:20;;;;;;;6.73;2.90;;;14.60;95.20;;;;;;5025227;28;20225;-75
2023/04/17 03:18:49;;;;;;;3.90;2.20;;;14.70;95.30;;;;;;5036748;28;20651;-76
2023/04/17 03:21:17;;;;;;;5.23;2.40;;;14.60;95.20;;;;;;5035814;28;20258;-78
2023/04/17 03:23:45;;;;;;;3.80;2.50;;;14.70;95.30;;;;;;5032879;28;20196;-76
2023/04/17 03:26:15;;;;;;;3.97;1.90;;;14.60;95.40;;;;;;5032179;28;20289;-77
2023/04/17 03:28:43;;;;;;;3.67;1.97;;;14.60;95.40;;;;;;5030971;28;20246;-78
2023/04/17 03:31:12;;;;;;;4.20;2.97;;;14.60;95.30;;;;;;5033990;28;20269;-76
2023/04/17 03:33:40;;;;;;;3.80;2.43;;;14.50;95.40;;;;;;5036076;28;20196;-77
2023/04/17 03:36:09;;;;;;;5.00;2.47;;;14.50;95.40;;;;;;5031339;28;20188;-76
2023/04/17 03:38:38;;;;;;;7.47;2.70;;;14.50;95.50;;;;;;5039407;28;20225;-75
2023/04/17 03:41:06;;;;;;;7.50;3.23;;;14.50;95.50;;;;;;5041184;28;20195;-77
2023/04/17 03:43:36;;;;;;;2.97;1.97;;;14.50;95.60;;;;;;5032745;28;20687;-76
2023/04/17 03:46:05;;;;;;;3.80;2.37;;;14.50;95.60;;;;;;5037484;28;20654;-76
2023/04/17 03:48:33;;;;;;;9.90;2.60;;;14.50;95.60;;;;;;5036337;28;20724;-78
2023/04/17 03:51:01;;;;;;;5.53;3.20;;;14.50;95.60;;;;;;5036497;28;20261;-76
2023/04/17 03:53:30;;;;;;;4.00;2.13;;;14.50;95.50;;;;;;5044940;28;20660;-76
2023/04/17 03:55:58;;;;;;;7.20;4.07;;;14.60;95.60;;;;;;5038710;28;20191;-75
2023/04/17 03:58:27;;;;;;;6.77;3.87;;;14.60;95.60;;;;;;5028601;28;20199;-76
2023/04/17 04:00:57;;;;;;;5.20;2.30;;;14.60;95.50;;;;;;5037188;28;20199;-76
2023/04/17 04:03:26;;;;;;;5.97;3.73;;;14.60;95.40;;;;;;5039131;28;20647;-75
2023/04/17 04:05:54;;;;;;;13.07;3.60;;;14.70;95.40;;;;;;5032700;28;20234;-76
2023/04/17 04:08:23;;;;;;;7.93;2.77;;;14.70;95.40;;;;;;5033864;28;20199;-74
2023/04/17 04:10:51;;;;;;;5.30;2.90;;;14.60;95.30;;;;;;5029928;28;20199;-77
2023/04/17 04:13:19;;;;;;;5.07;2.87;;;14.60;95.30;;;;;;5031334;28;20770;-78
2023/04/17 04:15:48;;;;;;;5.63;3.00;;;14.70;95.30;;;;;;5030252;28;20196;-76
2023/04/17 04:18:18;;;;;;;2.87;1.83;;;14.70;95.30;;;;;;5031051;28;20207;-77
2023/04/17 04:20:47;;;;;;;4.60;2.40;;;14.70;95.20;;;;;;5032479;28;20203;-77
2023/04/17 04:23:15;;;;;;;12.33;3.67;;;14.70;95.20;;;;;;5034575;28;20546;-77
2023/04/17 04:25:44;;;;;;;8.87;3.70;;;14.70;95.20;;;;;;5036393;28;20211;-76
2023/04/17 04:28:13;;;;;;;4.37;2.70;;;14.70;95.10;;;;;;5027115;28;20203;-76
2023/04/17 04:30:45;;;;;;;5.40;2.60;;;14.70;95.10;;;;;;5026037;28;20253;-78
2023/04/17 04:33:13;;;;;;;5.53;3.00;;;14.70;95.00;;;;;;5037552;28;20254;-77
2023/04/17 04:35:46;;;;;;;5.20;1.97;;;14.80;95.10;;;;;;5030740;28;20601;-77
2023/04/17 04:38:16;;;;;;;7.20;3.37;;;14.70;95.00;;;;;;5027462;28;20227;-76
2023/04/17 04:40:50;;;;;;;6.40;3.80;;;14.70;95.10;;;;;;5024032;28;20277;-77
2023/04/17 04:43:20;;;;;;;4.53;2.70;;;14.70;95.10;;;;;;5028668;28;20195;-77
2023/04/17 04:45:49;;;;;;;5.77;3.03;;;14.70;95.10;;;;;;5033690;28;20589;-77
2023/04/17 04:48:18;;;;;;;10.50;3.03;;;14.70;95.10;;;;;;5037335;28;20204;-74
2023/04/17 04:50:47;;;;;;;5.47;2.80;;;14.70;95.20;;;;;;5032016;28;20245;-76
2023/04/17 04:53:16;;;;;;;6.37;2.73;;;14.60;95.20;;;;;;5036229;28;20199;-76
2023/04/17 04:55:44;;;;;;;6.93;2.60;;;14.70;95.30;;;;;;5029632;28;20230;-76
2023/04/17 04:58:13;;;;;;;14.00;3.30;;;14.70;95.20;;;;;;5036483;28;20203;-76
2023/04/17 05:00:42;;;;;;;9.47;3.63;;;14.80;95.20;;;;;;5033194;28;20245;-76
2023/04/17 05:03:11;;;;;;;7.87;3.27;;;14.80;95.10;;;;;;5028792;28;20232;-76
2023/04/17 05:05:40;;;;;;;3.77;2.23;;;14.80;95.10;;;;;;5032619;28;20813;-76
2023/04/17 05:08:10;;;;;;;5.83;3.17;;;14.80;95.20;;;;;;5031020;28;20337;-76
2023/04/17 05:10:38;;;;;;;12.43;3.37;;;14.80;95.20;;;;;;5031231;28;20691;-77
2023/04/17 05:13:06;;;;;;;3.67;2.50;;;14.80;95.00;;;;;;5036764;28;20612;-74
2023/04/17 05:15:35;;;;;;;5.03;2.37;;;14.90;95.00;;;;;;5035489;28;20250;-76
2023/04/17 05:18:03;;;;;;;3.97;2.13;;;14.80;95.00;;;;;;5044457;28;20203;-75
2023/04/17 05:20:32;;;;;;;10.40;4.00;;;14.80;94.90;;;;;;5042505;28;20202;-76
2023/04/17 05:23:00;;;;;;;7.20;2.20;;;14.80;95.00;;;;;;5035581;28;20200;-75
2023/04/17 05:25:30;;;;;;;4.47;2.10;;;14.80;95.10;;;;;;5033307;28;20212;-75
2023/04/17 05:27:58;;;;;;;4.50;2.57;;;14.80;95.20;;;;;;5038299;28;20261;-75
2023/04/17 05:30:26;;;;;;;11.07;3.33;;;14.80;95.20;;;;;;5047321;28;20202;-76
2023/04/17 05:32:55;;;;;;;7.27;2.93;;;14.80;95.20;;;;;;5036564;28;20204;-77
2023/04/17 05:35:24;;;;;;;4.27;2.07;;;14.80;95.30;;;;;;5040246;28;20188;-76
2023/04/17 05:37:52;;;;;;;7.23;2.70;;;14.80;95.20;;;;;;5034515;28;20199;-77
2023/04/17 05:40:20;;;;;;;6.50;2.63;;;14.80;95.20;;;;;;5032895;28;20203;-77
2023/04/17 05:42:50;;;;;;;6.47;3.00;;;14.80;95.20;;;;;;5033266;28;20218;-76
2023/04/17 05:45:19;;;;;;;5.33;2.40;;;14.90;95.20;;;;;;5030744;28;20700;-75
2023/04/17 05:47:49;;;;;;;5.10;2.60;;;14.90;95.10;;;;;;5042369;28;20656;-75
2023/04/17 05:50:17;;;;;;;3.50;2.27;;;14.90;95.20;;;;;;5039169;28;20200;-76
2023/04/17 05:52:47;;;;;;;5.17;3.50;;;14.90;95.10;;;;;;5035333;28;20200;-75
2023/04/17 05:55:15;;;;;;;8.47;3.27;;;14.90;95.10;;;;;;5026800;28;20238;-77
2023/04/17 05:57:44;;;;;;;5.63;3.47;;;14.90;95.10;;;;;;5029334;28;20245;-77
2023/04/17 06:00:15;;;;;;;11.03;3.47;;;14.90;95.10;;;;;;5032743;28;20196;-76
2023/04/17 06:02:44;;;;;;;6.93;2.70;;;14.80;95.10;;;;;;5028690;28;20269;-74
2023/04/17 06:05:12;;;;;;;15.13;2.73;;;14.80;95.10;;;;;;5034581;28;20253;-74
2023/04/17 06:07:41;;;;;;;4.17;2.23;;;14.90;95.20;;;;;;5035188;28;20219;-76
2023/04/17 06:10:10;;;;;;;3.77;2.17;;;14.90;95.20;;;;;;5035632;28;20195;-76
2023/04/17 06:12:39;;;;;;;6.27;3.83;;;14.90;95.20;;;;;;5034557;28;20719;-75
2023/04/17 06:15:08;;;;;;;6.67;2.87;;;14.90;95.10;;;;;;5032255;28;20290;-75
2023/04/17 06:17:39;;;;;;;3.23;2.07;;;14.90;95.10;;;;;;5038930;28;20195;-75
2023/04/17 06:20:10;;;;;;;14.80;2.63;;;14.90;95.00;;;;;;5034503;28;20234;-75
2023/04/17 06:22:39;;;;;;;9.53;3.17;;;14.90;95.00;;;;;;5045014;28;20192;-76
2023/04/17 06:25:08;;;;;;;12.77;3.27;;;14.90;94.90;;;;;;5032597;28;20244;-75
2023/04/17 06:27:36;;;;;;;4.00;1.90;;;14.90;95.00;;;;;;5033802;28;21191;-75
2023/04/17 06:30:06;;;;;;;4.83;2.03;;;14.90;94.90;;;;;;5031954;28;20768;-76
2023/04/17 06:32:34;;;;;;;8.77;2.43;;;14.90;95.00;;;;;;5041873;28;20199;-77
2023/04/17 06:35:05;;;;;;;10.57;3.63;;;14.90;94.90;;;;;;5040274;28;20192;-74
2023/04/17 06:37:33;;;;;;;4.20;2.53;;;14.90;94.90;;;;;;5039391;28;20195;-75
2023/04/17 06:40:04;;;;;;;4.23;2.40;;;14.90;94.90;;;;;;5027154;28;20731;-75
2023/04/17 06:42:34;;;;;;;5.40;2.17;;;14.90;95.00;;;;;;5037102;28;20195;-75
2023/04/17 06:45:02;;;;;;;6.00;2.10;;;14.90;95.00;;;;;;5040402;28;20203;-76
2023/04/17 06:47:30;;;;;;;6.30;2.40;;;14.80;95.00;;;;;;5029393;28;20861;-76
2023/04/17 06:49:59;;;;;;;3.27;2.03;;;14.90;95.00;;;;;;5032722;28;20917;-76
2023/04/17 06:52:29;;;;;;;8.47;2.57;;;14.90;94.90;;;;;;5030233;28;20747;-75
2023/04/17 06:54:59;;;;;;;4.40;2.53;;;14.90;94.90;;;;;;5030237;28;20254;-76
2023/04/17 06:57:27;;;;;;;3.67;2.50;;;14.90;94.80;;;;;;5034639;28;20562;-75
2023/04/17 06:59:56;;;;;;;4.20;2.00;;;14.90;94.80;;;;;;5029510;28;20235;-75
2023/04/17 07:02:24;;;;;;;11.27;3.60;;;14.90;94.80;;;;;;5028435;28;20737;-76
2023/04/17 07:04:53;;;;;;;4.07;1.87;;;14.90;94.80;;;;;;5040099;28;20296;-76
2023/04/17 07:07:22;;;;;;;2.53;1.60;;;14.90;94.80;;;;;;5044099;28;20215;-77
2023/04/17 07:09:52;;;;;;;2.93;1.73;;;14.90;94.80;;;;;;5043803;28;20617;-76
2023/04/17 07:12:21;;;;;;;4.57;2.20;;;15.00;94.70;;;;;;5046635;28;20203;-75
2023/04/17 07:14:49;;;;;;;11.23;2.83;;;15.00;94.60;;;;;;5044023;28;20222;-76
2023/04/17 07:17:18;;;;;;;9.30;2.70;;;15.00;94.60;;;;;;5037256;28;20203;-77
2023/04/17 07:19:49;;;;;;;3.53;2.40;;;14.90;94.50;;;;;;5026390;28;20378;-76
2023/04/17 07:22:18;;;;;;;4.03;1.80;;;14.90;94.50;;;;;;5027730;28;20595;-77
2023/04/17 07:24:46;;;;;;;3.77;1.73;;;15.00;94.50;;;;;;5034427;28;20196;-78
2023/04/17 07:27:16;;;;;;;7.37;3.03;;;15.00;94.40;;;;;;5043614;28;20223;-77
2023/04/17 07:29:46;;;;;;;5.30;2.40;;;15.00;94.50;;;;;;5036962;28;20210;-77
2023/04/17 07:32:14;;;;;;;3.30;1.80;;;15.00;94.40;;;;;;5041371;28;20195;-77
2023/04/17 07:34:43;;;;;;;7.20;2.67;;;15.10;94.40;;;;;;5035503;28;20204;-77
2023/04/17 07:37:11;;;;;;;7.87;2.40;;;15.00;94.30;;;;;;5031750;28;20652;-77
2023/04/17 07:39:40;;;;;;;5.87;2.87;;;15.00;94.30;;;;;;5042159;28;20203;-77
2023/04/17 07:42:10;;;;;;;3.93;2.50;;;15.00;94.20;;;;;;5044958;28;20621;-77
2023/04/17 07:44:40;;;;;;;4.90;2.93;;;15.00;94.20;;;;;;5032043;28;20196;-78
2023/04/17 07:47:08;;;;;;;4.40;2.57;;;15.00;94.20;;;;;;5031217;28;20215;-78
2023/04/17 07:49:38;;;;;;;8.60;3.40;;;14.90;94.20;;;;;;5028482;28;20203;-76
2023/04/17 07:52:07;;;;;;;5.23;2.63;;;14.90;94.30;;;;;;5030727;28;20226;-76
2023/04/17 07:54:35;;;;;;;2.70;1.60;;;14.90;94.40;;;;;;5041395;28;20281;-77
2023/04/17 07:57:04;;;;;;;9.30;2.87;;;14.90;94.40;;;;;;5031192;28;20532;-76
2023/04/17 07:59:36;;;;;;;3.40;1.73;;;14.90;94.40;;;;;;5033360;28;20195;-77
2023/04/17 08:02:06;;;;;;;3.67;2.03;;;14.90;94.50;;;;;;5025178;28;20290;-76
2023/04/17 08:04:36;;;;;;;6.00;1.60;;;14.90;94.50;;;;;;5026501;28;20253;-76
2023/04/17 08:07:05;;;;;;;3.47;1.83;;;14.90;94.80;;;;;;5042602;28;20255;-75
2023/04/17 08:09:33;;;;;;;1.90;1.40;;;14.90;94.50;;;;;;5043343;28;20207;-75
2023/04/17 08:12:02;;;;;;;3.33;1.80;;;14.90;94.50;;;;;;5031438;28;20869;-76
2023/04/17 08:14:30;;;;;;;6.23;2.20;;;14.90;94.50;;;;;;5034715;28;20249;-74
2023/04/17 08:16:59;;;;;;;2.67;1.90;;;14.80;94.50;;;;;;5044012;28;20196;-76
2023/04/17 08:19:29;;;;;;;3.80;2.30;;;14.90;94.50;;;;;;5045342;28;20203;-76
2023/04/17 08:22:03;;;;;;;3.50;2.13;;;14.90;94.60;;;;;;5038843;28;20207;-76
2023/04/17 08:24:32;;;;;;;3.87;2.37;;;14.90;94.60;;;;;;5039067;28;20204;-77
2023/04/17 08:27:00;;;;;;;4.50;2.20;;;14.90;94.50;;;;;;5031453;28;20219;-76
2023/04/17 08:29:29;;;;;;;4.13;2.33;;;14.90;94.50;;;;;;5037504;28;20246;-75
2023/04/17 08:31:57;;;;;;;4.90;2.27;;;14.90;94.60;;;;;;5031618;28;20196;-76
2023/04/17 08:34:44;;;;;;;4.23;2.30;;;15.00;94.50;;;;;;5028984;28;20254;-76
2023/04/17 08:37:12;;;;;;;4.77;2.23;;;15.00;94.50;;;;;;5037667;28;20242;-75
2023/04/17 08:39:41;;;;;;;5.30;2.83;;;15.00;94.50;;;;;;5042125;28;20245;-76
2023/04/17 08:42:10;;;;;;;5.60;2.60;;;15.10;94.50;;;;;;5037661;28;20597;-75
2023/04/17 08:44:45;;;;;;;5.60;3.27;;;15.00;94.50;;;;;;5026062;28;20195;-76
2023/04/17 08:47:18;;;;;;;9.90;3.00;;;15.10;94.50;;;;;;5038822;28;20766;-74
2023/04/17 08:49:49;;;;;;;8.93;2.80;;;15.10;94.40;;;;;;5039908;28;20200;-76
2023/04/17 08:52:17;;;;;;;7.07;3.10;;;15.10;94.50;;;;;;5042845;28;20206;-76
2023/04/17 08:54:46;;;;;;;6.57;3.47;;;15.00;94.60;;;;;;5043223;28;20192;-77
2023/04/17 08:57:18;;;;;;;8.13;3.63;;;15.10;94.60;;;;;;5033187;28;20187;-76
2023/04/17 08:59:46;;;;;;;4.47;2.60;;;15.10;94.60;;;;;;5044006;28;20204;-75
2023/04/17 09:02:14;;;;;;;7.30;2.83;;;15.10;94.60;;;;;;5046933;28;20230;-76
2023/04/17 09:04:45;;;;;;;9.40;3.30;;;15.10;94.60;;;;;;5042416;28;20751;-77
2023/04/17 09:07:16;;;;;;;5.03;2.77;;;15.10;94.60;;;;;;5039181;28;20294;-76
2023/04/17 09:09:51;;;;;;;5.67;3.33;;;15.10;94.70;;;;;;5044086;28;20237;-75
2023/04/17 09:12:21;;;;;;;7.73;3.37;;;15.10;94.70;;;;;;5028558;28;20741;-75
2023/04/17 09:14:50;;;;;;;8.17;2.93;;;15.10;94.80;;;;;;5038116;28;20281;-75
2023/04/17 09:17:21;;;;;;;7.97;2.90;;;15.10;94.70;;;;;;5044828;28;20199;-75
2023/04/17 09:20:06;;;;;;;11.10;4.73;;;15.00;94.70;;;;;;5035671;28;20253;-74
2023/04/17 09:22:38;;;;;;;11.03;3.47;;;15.00;94.90;;;;;;5047351;28;20198;-74
2023/04/17 09:25:16;;;;;;;5.37;2.87;;;15.00;94.90;;;;;;5039446;28;20196;-75
2023/04/17 09:27:45;;;;;;;8.57;4.07;;;15.10;95.00;;;;;;5044534;28;20211;-74
2023/04/17 09:30:13;;;;;;;5.17;2.70;;;15.10;94.90;;;;;;5040521;28;20208;-73
2023/04/17 09:32:42;;;;;;;4.17;2.20;;;15.10;95.00;;;;;;5043142;28;20662;-73
2023/04/17 09:35:10;;;;;;;4.67;2.93;;;15.10;95.10;;;;;;5033705;28;20204;-74
2023/04/17 09:37:51;;;;;;;4.40;2.43;;;15.10;95.00;;;;;;5039065;28;20212;-73
2023/04/17 09:40:21;;;;;;;5.90;2.00;;;15.10;95.10;;;;;;5038610;28;20356;-74
2023/04/17 09:42:57;;;;;;;8.77;3.67;;;15.10;95.10;;;;;;5044682;28;20660;-74
2023/04/17 09:45:31;;;;;;;6.57;3.37;;;15.00;95.10;;;;;;5033626;28;20195;-77
2023/04/17 09:48:00;;;;;;;6.23;3.30;;;15.00;95.10;;;;;;5035543;28;20207;-74
2023/04/17 09:50:30;;;;;;;6.33;2.73;;;15.00;95.20;;;;;;5039510;28;20668;-74
2023/04/17 09:53:00;;;;;;;6.07;2.73;;;15.00;95.10;;;;;;5029035;28;20200;-75
2023/04/17 09:55:30;;;;;;;5.77;2.67;;;15.00;95.10;;;;;;5037537;28;20203;-74
2023/04/17 09:58:01;;;;;;;3.70;2.53;;;14.90;95.20;;;;;;5032255;28;20463;-75
2023/04/17 10:00:30;;;;;;;5.17;3.43;;;15.00;95.20;;;;;;5032810;28;20200;-75
2023/04/17 10:02:59;;;;;;;4.00;3.20;;;15.00;95.20;;;;;;5030930;28;20718;-75
2023/04/17 10:05:31;;;;;;;5.00;2.53;;;14.90;95.20;;;;;;5045070;28;20207;-75
2023/04/17 10:08:01;;;;;;;5.23;2.53;;;15.00;95.20;;;;;;5044193;28;20261;-75
2023/04/17 10:10:32;;;;;;;5.63;2.77;;;15.00;95.20;;;;;;5027581;28;20242;-75
2023/04/17 10:13:03;;;;;;;5.73;2.67;;;14.90;95.20;;;;;;5034497;28;20204;-74
2023/04/17 10:15:33;;;;;;;4.77;2.73;;;15.00;95.10;;;;;;5042025;28;20202;-75
2023/04/17 10:18:19;;;;;;;5.50;2.60;;;14.90;95.10;;;;;;5037593;28;20216;-74
2023/04/17 10:20:48;;;;;;;5.60;2.50;;;14.90;95.20;;;;;;5031322;28;20250;-74
2023/04/17 10:23:32;;;;;;;6.23;2.07;;;14.90;95.20;;;;;;5036545;28;20269;-74
2023/04/17 10:26:37;;;;;;;5.53;2.57;;;14.90;95.10;;;;;;5034319;28;20250;-74
2023/04/17 10:29:06;;;;;;;4.70;2.90;;;14.90;95.20;;;;;;5028159;28;20257;-75
2023/04/17 10:32:15;;;;;;;7.63;3.50;;;14.80;95.20;;;;;;5034475;28;20297;-73
2023/04/17 10:34:44;;;;;;;8.67;3.97;;;14.80;95.10;;;;;;5035082;28;20314;-74
2023/04/17 10:37:14;;;;;;;5.47;2.63;;;14.80;95.20;;;;;;5041549;28;20202;-74
2023/04/17 10:40:00;;;;;;;6.53;3.07;;;14.80;95.30;;;;;;5032260;28;20207;-75
2023/04/17 10:42:31;;;;;;;4.20;2.03;;;14.70;95.20;;;;;;5034618;28;20192;-72
2023/04/17 10:45:04;;;;;;;4.27;2.47;;;14.70;95.10;;;;;;5039942;28;20219;-75
2023/04/17 10:47:33;;;;;;;4.37;2.07;;;14.80;95.30;;;;;;5042907;28;20658;-73
2023/04/17 10:50:08;;;;;;;4.63;2.13;;;14.80;95.20;;;;;;5033862;28;20219;-74
2023/04/17 10:52:40;;;;;;;4.00;2.47;;;14.70;95.20;;;;;;5036304;28;20191;-73
2023/04/17 10:55:14;;;;;;;4.60;2.70;;;14.70;95.20;;;;;;5042465;28;20199;-75
2023/04/17 10:57:54;;;;;;;4.03;1.93;;;14.70;95.30;;;;;;5035642;28;20197;-73
2023/04/17 11:00:30;;;;;;;4.27;2.13;;;14.70;95.40;;;;;;5022796;28;20195;-74
2023/04/17 11:02:59;;;;;;;4.30;2.53;;;14.70;95.50;;;;;;5036329;28;20626;-74
2023/04/17 11:05:30;;;;;;;12.13;2.30;;;14.70;95.50;;;;;;5043023;28;20207;-73
2023/04/17 11:07:58;;;;;;;5.93;1.83;;;14.70;95.50;;;;;;5035517;28;20196;-73
2023/04/17 11:10:28;;;;;;;3.23;1.73;;;14.70;95.60;;;;;;5031942;28;20207;-74
2023/04/17 11:12:56;;;;;;;5.50;2.50;;;14.70;95.70;;;;;;5040915;28;20633;-73
2023/04/17 11:15:28;;;;;;;4.13;2.17;;;14.60;95.50;;;;;;5033992;28;20601;-74
2023/04/17 11:17:58;;;;;;;6.87;1.73;;;14.50;95.50;;;;;;5036384;28;20199;-73
2023/04/17 11:20:28;;;;;;;5.00;2.87;;;14.50;95.50;;;;;;5045710;28;20615;-74
2023/04/17 11:23:00;;;;;;;6.10;3.03;;;14.50;95.60;;;;;;5038469;28;20188;-74
2023/04/17 11:25:32;;;;;;;4.33;2.43;;;14.50;95.50;;;;;;5029838;28;20200;-75
2023/04/17 11:28:03;;;;;;;3.87;2.33;;;14.50;95.60;;;;;;5026493;28;20199;-74
2023/04/17 11:30:33;;;;;;;3.17;1.87;;;14.50;95.80;;;;;;5032896;28;20249;-73
2023/04/17 11:33:03;;;;;;;2.67;1.67;;;14.50;95.80;;;;;;5029129;28;20207;-73
2023/04/17 11:35:33;;;;;;;2.73;2.07;;;14.40;95.80;;;;;;5031902;28;20568;-73
2023/04/17 11:38:13;;;;;;;3.17;2.13;;;14.40;95.90;;;;;;5031692;28;20609;-74
2023/04/17 11:40:47;;;;;;;2.90;2.00;;;14.40;96.00;;;;;;5032008;28;20282;-73
2023/04/17 11:43:16;;;;;;;3.83;1.80;;;14.30;95.90;;;;;;5035523;28;20199;-73
2023/04/17 11:45:46;;;;;;;4.23;1.93;;;14.30;96.00;;;;;;5033330;28;20577;-73
2023/04/17 11:48:18;;;;;;;8.10;3.70;;;14.30;96.00;;;;;;5040337;28;20648;-74
2023/04/17 11:50:49;;;;;;;4.63;2.47;;;14.30;96.00;;;;;;5024449;28;20196;-72
2023/04/17 11:53:18;;;;;;;3.83;2.03;;;14.30;96.00;;;;;;5025833;28;20656;-74
2023/04/17 11:55:48;;;;;;;5.17;2.77;;;14.30;96.00;;;;;;5031466;28;20652;-73
2023/04/17 11:58:17;;;;;;;5.27;3.27;;;14.30;96.10;;;;;;5034760;28;20199;-73
2023/04/17 12:00:45;;;;;;;4.70;2.67;;;14.40;96.20;;;;;;5030773;28;20191;-75
2023/04/17 12:03:34;;;;;;;5.10;2.97;;;14.40;96.20;;;;;;5029577;28;20218;-74
2023/04/17 12:06:05;;;;;;;4.73;2.07;;;14.40;96.20;;;;;;5030617;28;20195;-73
2023/04/17 12:08:43;;;;;;;4.23;2.20;;;14.30;96.30;;;;;;5032702;28;20291;-74
2023/04/17 12:11:22;;;;;;;9.00;4.03;;;14.30;96.20;;;;;;5031502;28;20793;-73
2023/04/17 12:13:51;;;;;;;5.80;2.93;;;14.30;96.30;;;;;;5025424;28;20196;-76
2023/04/17 12:16:20;;;;;;;5.80;2.90;;;14.30;96.40;;;;;;5036538;28;20302;-73
2023/04/17 12:18:49;;;;;;;7.93;3.10;;;14.30;96.30;;;;;;5026525;28;20200;-73
2023/04/17 12:21:18;;;;;;;9.63;3.30;;;14.30;96.30;;;;;;5023542;28;20549;-73
2023/04/17 12:23:46;;;;;;;6.23;2.80;;;14.30;96.40;;;;;;5028568;28;20603;-74
2023/04/17 12:26:16;;;;;;;6.87;2.70;;;14.30;96.40;;;;;;5030078;28;20204;-73
2023/04/17 12:28:45;;;;;;;5.13;2.80;;;14.40;96.30;;;;;;5029303;28;20203;-73
2023/04/17 12:31:16;;;;;;;7.73;3.27;;;14.40;96.30;;;;;;5026905;28;20207;-75
2023/04/17 12:33:44;;;;;;;7.00;3.17;;;14.40;96.50;;;;;;5029998;28;20273;-72
2023/04/17 12:36:13;;;;;;;5.47;3.07;;;14.40;96.30;;;;;;5028729;28;20204;-74
2023/04/17 12:38:42;;;;;;;4.03;2.73;;;14.40;96.30;;;;;;5035316;28;20235;-75
2023/04/17 12:41:10;;;;;;;4.90;2.87;;;14.40;96.30;;;;;;5027984;28;20641;-73
2023/04/17 12:43:40;;;;;;;4.77;2.73;;;14.40;96.20;;;;;;5028177;28;20641;-73
2023/04/17 12:46:08;;;;;;;6.80;3.30;;;14.40;96.30;;;;;;5030736;28;20601;-74
2023/04/17 12:48:37;;;;;;;15.67;3.03;;;14.40;96.30;;;;;;5028940;28;20192;-73
2023/04/17 12:51:05;;;;;;;5.27;2.83;;;14.40;96.20;;;;;;5028892;28;20270;-74
2023/04/17 12:53:34;;;;;;;8.13;2.27;;;14.50;96.40;;;;;;5027893;28;20249;-74
2023/04/17 12:56:02;;;;;;;3.17;2.10;;;14.50;96.40;;;;;;5030539;28;20734;-72
2023/04/17 12:58:31;;;;;;;4.60;2.53;;;14.50;96.30;;;;;;5030555;28;20199;-75